Time;durP1;ratioP1;P1;durP2;ratioP2;P2;SDS_P1;SDS_P2;PMS_P1;PMS_P2;Temp;Humidity;BMP_temperature;BMP_pressure;BME280_temperature;BME280_humidity;BME280_pressure;Samples;Min_cycle;Max_cycle;Signal;HPM_P1;HPM_P2
2023/04/21 00:01:07;;;;;;;35.22;26.75;;;;;;;;;;5058002;28;20212;-77
2023/04/21 00:03:36;;;;;;;41.70;27.52;;;;;;;;;;5024232;28;20177;-78
2023/04/21 00:06:05;;;;;;;37.28;26.98;;;;;;;;;;5039576;28;20629;-78
2023/04/21 00:08:31;;;;;;;36.03;26.88;;;;;;;;;;5057562;28;20268;-77
2023/04/21 00:10:57;;;;;;;35.03;25.70;;;;;;;;;;5040154;28;20522;-77
2023/04/21 00:13:23;;;;;;;36.33;25.98;;;;;;;;;;5039877;28;20182;-78
2023/04/21 00:15:49;;;;;;;35.40;25.65;;;;;;;;;;5039315;28;20626;-77
2023/04/21 00:18:16;;;;;;;40.55;28.60;;;;;;;;;;5057631;28;20209;-78
2023/04/21 00:20:43;;;;;;;42.30;27.50;;;;;;;;;;5057232;28;20304;-78
2023/04/21 00:23:12;;;;;;;40.83;29.25;;;;;;;;;;5057500;28;20185;-78
2023/04/21 00:25:38;;;;;;;41.40;29.90;;;;;;;;;;5039586;28;20198;-78
2023/04/21 00:28:04;;;;;;;39.90;29.17;;;;;;;;;;5057412;28;20185;-78
2023/04/21 00:30:30;;;;;;;42.13;28.48;;;;;;;;;;5040051;28;20177;-78
2023/04/21 00:32:56;;;;;;;38.55;28.80;;;;;;;;;;5039576;28;20182;-78
2023/04/21 00:35:22;;;;;;;40.38;28.95;;;;;;;;;;5038912;28;20173;-78
2023/04/21 00:37:49;;;;;;;38.88;28.38;;;;;;;;;;5039131;28;20209;-78
2023/04/21 00:40:15;;;;;;;46.30;30.98;;;;;;;;;;5057496;28;20188;-78
2023/04/21 00:42:41;;;;;;;40.92;28.80;;;;;;;;;;5038729;28;20264;-78
2023/04/21 00:45:08;;;;;;;46.65;33.78;;;;;;;;;;5056576;28;20172;-78
2023/04/21 00:47:34;;;;;;;44.20;31.70;;;;;;;;;;5057117;28;20546;-77
2023/04/21 00:50:00;;;;;;;42.63;31.73;;;;;;;;;;5056509;28;20272;-78
2023/04/21 00:52:26;;;;;;;42.22;29.75;;;;;;;;;;5039103;28;20715;-78
2023/04/21 00:54:52;;;;;;;46.72;32.13;;;;;;;;;;5039131;28;20180;-78
2023/04/21 00:57:20;;;;;;;43.97;31.88;;;;;;;;;;5057179;28;20166;-78
2023/04/21 00:59:46;;;;;;;44.38;31.45;;;;;;;;;;5056442;28;20216;-78
2023/04/21 01:02:13;;;;;;;47.67;33.03;;;;;;;;;;5039306;28;20268;-78
2023/04/21 01:04:40;;;;;;;46.35;31.88;;;;;;;;;;5038568;28;20182;-79
2023/04/21 01:07:07;;;;;;;46.42;32.45;;;;;;;;;;5038776;28;20165;-78
2023/04/21 01:09:33;;;;;;;47.25;33.22;;;;;;;;;;5056623;28;20503;-78
2023/04/21 01:12:01;;;;;;;48.72;32.88;;;;;;;;;;5056530;28;20200;-78
2023/04/21 01:14:27;;;;;;;52.17;33.85;;;;;;;;;;5056727;28;20661;-77
2023/04/21 01:16:53;;;;;;;52.10;33.45;;;;;;;;;;5056315;28;20256;-78
2023/04/21 01:19:19;;;;;;;53.38;33.45;;;;;;;;;;5038494;28;20669;-78
2023/04/21 01:21:45;;;;;;;52.42;34.10;;;;;;;;;;5021993;28;20177;-78
2023/04/21 01:24:11;;;;;;;47.53;32.42;;;;;;;;;;5038961;28;20200;-78
2023/04/21 01:26:38;;;;;;;54.70;35.53;;;;;;;;;;5022001;28;20189;-78
2023/04/21 01:29:04;;;;;;;47.53;34.58;;;;;;;;;;5021514;28;20192;-78
2023/04/21 01:31:30;;;;;;;48.90;36.17;;;;;;;;;;5022042;28;20184;-78
2023/04/21 01:33:56;;;;;;;53.03;36.38;;;;;;;;;;5037946;28;20169;-78
2023/04/21 01:36:22;;;;;;;51.85;34.85;;;;;;;;;;5056213;28;20200;-78
2023/04/21 01:38:48;;;;;;;50.60;34.15;;;;;;;;;;5038198;28;20209;-78
2023/04/21 01:41:14;;;;;;;49.17;34.78;;;;;;;;;;5022056;28;20189;-78
2023/04/21 01:43:40;;;;;;;51.05;34.00;;;;;;;;;;5022116;28;20181;-78
2023/04/21 01:46:07;;;;;;;51.33;33.72;;;;;;;;;;5056291;28;20170;-78
2023/04/21 01:48:33;;;;;;;46.72;32.55;;;;;;;;;;5037790;28;20266;-79
2023/04/21 01:50:59;;;;;;;57.92;35.05;;;;;;;;;;5036697;28;20644;-78
2023/04/21 01:53:25;;;;;;;48.67;33.58;;;;;;;;;;5055867;28;20169;-78
2023/04/21 01:55:52;;;;;;;51.42;34.88;;;;;;;;;;5037919;28;20177;-78
2023/04/21 01:58:18;;;;;;;49.83;31.77;;;;;;;;;;5038076;28;20213;-78
2023/04/21 02:00:44;;;;;;;52.17;34.58;;;;;;;;;;5037686;28;20178;-79
2023/04/21 02:03:10;;;;;;;51.22;32.92;;;;;;;;;;5055564;28;20174;-78
2023/04/21 02:05:36;;;;;;;48.10;32.03;;;;;;;;;;5055621;28;20169;-78
2023/04/21 02:08:02;;;;;;;52.67;34.28;;;;;;;;;;5055366;28;20184;-78
2023/04/21 02:10:28;;;;;;;49.05;33.20;;;;;;;;;;5021862;28;20181;-78
2023/04/21 02:12:54;;;;;;;48.78;34.40;;;;;;;;;;5021002;28;20177;-78
2023/04/21 02:15:20;;;;;;;49.28;32.67;;;;;;;;;;5037601;28;20692;-78
2023/04/21 02:17:46;;;;;;;50.55;32.05;;;;;;;;;;5037227;28;20237;-78
2023/04/21 02:20:12;;;;;;;49.10;32.78;;;;;;;;;;5037836;28;20664;-78
2023/04/21 02:22:39;;;;;;;52.30;34.05;;;;;;;;;;5037708;28;20273;-78
2023/04/21 02:25:05;;;;;;;48.67;33.95;;;;;;;;;;5037419;28;20607;-79
2023/04/21 02:27:31;;;;;;;45.45;31.98;;;;;;;;;;5055095;28;20184;-78
2023/04/21 02:29:57;;;;;;;45.88;32.90;;;;;;;;;;5037139;28;20178;-78
2023/04/21 02:32:23;;;;;;;48.35;33.50;;;;;;;;;;5055001;28;20181;-78
2023/04/21 02:34:49;;;;;;;46.00;32.58;;;;;;;;;;5037770;28;20176;-78
2023/04/21 02:37:15;;;;;;;42.13;30.85;;;;;;;;;;5055391;28;20699;-78
2023/04/21 02:39:42;;;;;;;48.70;33.25;;;;;;;;;;5037694;28;20259;-78
2023/04/21 02:42:08;;;;;;;47.55;33.33;;;;;;;;;;5054848;28;20175;-78
2023/04/21 02:44:37;;;;;;;47.58;31.90;;;;;;;;;;5037659;28;20173;-78
2023/04/21 02:47:03;;;;;;;46.83;30.35;;;;;;;;;;5036854;28;20181;-78
2023/04/21 02:49:29;;;;;;;47.55;32.45;;;;;;;;;;5037308;28;20233;-78
2023/04/21 02:51:55;;;;;;;46.75;32.92;;;;;;;;;;5037019;28;20185;-78
2023/04/21 02:54:21;;;;;;;49.95;30.30;;;;;;;;;;5054898;28;20173;-78
2023/04/21 02:56:47;;;;;;;48.70;31.23;;;;;;;;;;5055128;28;20633;-78
2023/04/21 02:59:15;;;;;;;47.58;30.83;;;;;;;;;;5021046;28;20468;-79
2023/04/21 03:01:41;;;;;;;52.33;33.15;;;;;;;;;;5038088;28;20188;-77
2023/04/21 03:04:07;;;;;;;44.03;31.58;;;;;;;;;;5058683;28;20201;-78
2023/04/21 03:06:33;;;;;;;48.23;33.20;;;;;;;;;;5041437;28;20537;-77
2023/04/21 03:09:00;;;;;;;46.88;31.20;;;;;;;;;;5059144;28;20451;-77
2023/04/21 03:11:26;;;;;;;47.58;32.22;;;;;;;;;;5059241;28;20174;-78
2023/04/21 03:13:52;;;;;;;41.40;28.90;;;;;;;;;;5040540;28;20315;-78
2023/04/21 03:16:18;;;;;;;44.17;31.27;;;;;;;;;;5040696;28;20282;-77
2023/04/21 03:18:44;;;;;;;46.90;32.15;;;;;;;;;;5058668;28;20823;-77
2023/04/21 03:21:10;;;;;;;42.03;29.67;;;;;;;;;;5058470;28;20253;-78
2023/04/21 03:23:36;;;;;;;49.70;32.65;;;;;;;;;;5024457;28;20549;-77
2023/04/21 03:26:06;;;;;;;48.20;31.30;;;;;;;;;;5040293;28;20228;-77
2023/04/21 03:28:32;;;;;;;49.28;32.88;;;;;;;;;;5041195;28;20933;-78
2023/04/21 03:30:58;;;;;;;44.77;30.50;;;;;;;;;;5058333;28;20268;-77
2023/04/21 03:33:24;;;;;;;49.97;31.87;;;;;;;;;;5058629;28;20420;-78
2023/04/21 03:35:50;;;;;;;47.80;30.57;;;;;;;;;;5040198;28;20770;-78
2023/04/21 03:38:16;;;;;;;46.87;30.43;;;;;;;;;;5040511;28;20490;-77
2023/04/21 03:40:42;;;;;;;45.87;31.60;;;;;;;;;;5058293;28;20438;-77
2023/04/21 03:43:08;;;;;;;46.10;30.20;;;;;;;;;;5024009;28;20809;-77
2023/04/21 03:45:35;;;;;;;47.37;31.20;;;;;;;;;;5058593;28;20491;-77
2023/04/21 03:48:01;;;;;;;52.13;31.42;;;;;;;;;;5058253;28;20472;-78
2023/04/21 03:50:27;;;;;;;45.80;29.60;;;;;;;;;;5058865;28;20233;-77
2023/04/21 03:52:53;;;;;;;49.72;31.17;;;;;;;;;;5058220;28;20412;-77
2023/04/21 03:55:19;;;;;;;50.27;30.37;;;;;;;;;;5024031;28;20229;-77
2023/04/21 03:57:45;;;;;;;50.07;29.83;;;;;;;;;;5040473;28;20451;-77
2023/04/21 04:00:12;;;;;;;46.13;30.83;;;;;;;;;;5039706;28;20424;-77
2023/04/21 04:02:38;;;;;;;47.70;32.42;;;;;;;;;;5039964;28;20443;-78
2023/04/21 04:05:04;;;;;;;52.58;31.10;;;;;;;;;;5039952;28;20184;-77
2023/04/21 04:07:34;;;;;;;47.17;31.90;;;;;;;;;;5040218;28;20188;-77
2023/04/21 04:10:00;;;;;;;51.53;30.70;;;;;;;;;;5039936;28;20576;-77
2023/04/21 04:12:26;;;;;;;43.72;29.02;;;;;;;;;;5023024;28;20231;-78
2023/04/21 04:14:52;;;;;;;52.42;31.27;;;;;;;;;;5040178;28;20224;-78
2023/04/21 04:17:18;;;;;;;49.33;31.50;;;;;;;;;;5041792;28;20580;-77
2023/04/21 04:19:44;;;;;;;53.30;31.63;;;;;;;;;;5061878;28;20475;-77
2023/04/21 04:22:10;;;;;;;48.37;31.00;;;;;;;;;;5057554;28;20408;-77
2023/04/21 04:24:36;;;;;;;48.47;29.27;;;;;;;;;;5058368;28;20408;-77
2023/04/21 04:27:02;;;;;;;45.75;31.65;;;;;;;;;;5022926;28;20474;-77
2023/04/21 04:29:28;;;;;;;47.35;31.38;;;;;;;;;;5057783;28;20181;-77
2023/04/21 04:31:55;;;;;;;52.50;32.17;;;;;;;;;;5040005;28;20282;-77
2023/04/21 04:34:22;;;;;;;48.78;32.13;;;;;;;;;;5057544;28;20526;-77
2023/04/21 04:36:49;;;;;;;49.72;31.35;;;;;;;;;;5040084;28;20196;-77
2023/04/21 04:39:15;;;;;;;47.50;31.80;;;;;;;;;;5057052;28;20205;-77
2023/04/21 04:41:41;;;;;;;47.08;30.00;;;;;;;;;;5057851;28;20181;-77
2023/04/21 04:44:08;;;;;;;47.78;31.70;;;;;;;;;;5039499;28;20273;-77
2023/04/21 04:46:34;;;;;;;45.72;29.33;;;;;;;;;;5039833;28;20267;-77
2023/04/21 04:49:00;;;;;;;55.78;33.15;;;;;;;;;;5056835;28;20201;-77
2023/04/21 04:51:27;;;;;;;52.38;33.13;;;;;;;;;;5023083;28;20202;-77
2023/04/21 04:53:53;;;;;;;53.00;31.77;;;;;;;;;;5038940;28;20181;-84
2023/04/21 04:56:18;;;;;;;52.63;33.93;;;;;;;;;;5039282;28;20184;-77
2023/04/21 04:58:47;;;;;;;54.10;32.97;;;;;;;;;;5056632;28;20511;-77
2023/04/21 05:01:16;;;;;;;58.58;34.58;;;;;;;;;;5056489;28;20771;-77
2023/04/21 05:03:43;;;;;;;55.15;32.78;;;;;;;;;;5056500;28;20191;-77
2023/04/21 05:06:09;;;;;;;56.75;32.97;;;;;;;;;;5056956;28;20179;-76
2023/04/21 05:08:35;;;;;;;51.03;32.60;;;;;;;;;;5057050;28;20513;-76
2023/04/21 05:11:01;;;;;;;58.28;33.25;;;;;;;;;;5056750;28;20192;-77
2023/04/21 05:13:27;;;;;;;52.08;33.40;;;;;;;;;;5057050;28;20185;-77
2023/04/21 05:15:57;;;;;;;56.17;34.43;;;;;;;;;;5039454;28;20525;-76
2023/04/21 05:18:23;;;;;;;53.05;33.60;;;;;;;;;;5038460;28;20469;-77
2023/04/21 05:20:49;;;;;;;58.13;33.95;;;;;;;;;;5056343;28;20252;-77
2023/04/21 05:23:15;;;;;;;48.22;31.95;;;;;;;;;;5056439;28;20208;-77
2023/04/21 05:25:41;;;;;;;53.87;35.50;;;;;;;;;;5021329;28;20637;-77
2023/04/21 05:28:07;;;;;;;55.93;33.77;;;;;;;;;;5038170;28;20751;-77
2023/04/21 05:30:33;;;;;;;57.47;33.40;;;;;;;;;;5038770;28;20420;-77
2023/04/21 05:33:00;;;;;;;47.93;31.03;;;;;;;;;;5056592;28;20416;-77
2023/04/21 05:35:25;;;;;;;54.65;33.40;;;;;;;;;;5038792;28;20902;-77
2023/04/21 05:37:51;;;;;;;54.57;33.17;;;;;;;;;;5038768;28;20205;-77
2023/04/21 05:40:17;;;;;;;53.20;33.13;;;;;;;;;;5038521;28;20775;-77
2023/04/21 05:42:43;;;;;;;57.60;33.58;;;;;;;;;;5056455;28;20418;-77
2023/04/21 05:45:10;;;;;;;57.90;31.37;;;;;;;;;;5055573;28;20692;-77
2023/04/21 05:47:37;;;;;;;51.42;32.08;;;;;;;;;;5056427;28;20408;-77
2023/04/21 05:50:03;;;;;;;54.38;34.70;;;;;;;;;;5055732;28;20270;-77
2023/04/21 05:52:29;;;;;;;59.25;32.47;;;;;;;;;;5056841;28;20181;-77
2023/04/21 05:54:55;;;;;;;53.45;35.00;;;;;;;;;;5056510;28;20187;-77
2023/04/21 05:57:21;;;;;;;59.63;33.25;;;;;;;;;;5056946;28;20205;-77
2023/04/21 05:59:47;;;;;;;56.67;33.13;;;;;;;;;;5056630;28;20688;-77
2023/04/21 06:02:13;;;;;;;55.33;35.27;;;;;;;;;;5056122;28;20768;-77
2023/04/21 06:04:39;;;;;;;57.53;32.67;;;;;;;;;;5022132;28;20420;-77
2023/04/21 06:07:06;;;;;;;55.70;35.00;;;;;;;;;;5055647;28;20404;-77
2023/04/21 06:09:32;;;;;;;54.38;32.47;;;;;;;;;;5056109;28;20567;-77
2023/04/21 06:11:58;;;;;;;63.17;35.80;;;;;;;;;;5056082;28;20247;-79
2023/04/21 06:14:24;;;;;;;62.07;35.10;;;;;;;;;;5055956;28;20430;-77
2023/04/21 06:16:50;;;;;;;58.70;34.30;;;;;;;;;;5055764;28;20443;-76
2023/04/21 06:19:16;;;;;;;57.77;35.33;;;;;;;;;;5038063;28;20799;-77
2023/04/21 06:21:42;;;;;;;59.73;34.97;;;;;;;;;;5055342;28;20415;-79
2023/04/21 06:24:08;;;;;;;55.88;34.63;;;;;;;;;;5055241;28;20518;-79
2023/04/21 06:26:34;;;;;;;57.97;34.85;;;;;;;;;;5055062;28;20173;-78
2023/04/21 06:29:00;;;;;;;60.53;36.78;;;;;;;;;;5054876;28;20181;-80
2023/04/21 06:31:26;;;;;;;68.70;39.08;;;;;;;;;;5037349;28;20184;-79
2023/04/21 06:33:52;;;;;;;65.93;35.53;;;;;;;;;;5037054;28;20509;-78
2023/04/21 06:36:20;;;;;;;63.13;35.75;;;;;;;;;;5038974;28;20548;-80
2023/04/21 06:38:46;;;;;;;70.40;40.03;;;;;;;;;;5058864;28;20213;-80
2023/04/21 06:41:12;;;;;;;73.70;40.20;;;;;;;;;;5058530;28;20668;-81
2023/04/21 06:43:38;;;;;;;72.83;42.73;;;;;;;;;;5040872;28;20426;-80
2023/04/21 06:46:04;;;;;;;76.82;40.97;;;;;;;;;;5040951;28;20446;-80
2023/04/21 06:48:30;;;;;;;74.97;43.08;;;;;;;;;;5040520;28;20177;-81
2023/04/21 06:50:56;;;;;;;64.63;37.70;;;;;;;;;;5040361;28;20586;-80
2023/04/21 06:53:22;;;;;;;68.82;40.92;;;;;;;;;;5024253;28;20177;-80
2023/04/21 06:55:49;;;;;;;73.63;40.22;;;;;;;;;;5024181;28;20674;-80
2023/04/21 06:58:15;;;;;;;72.57;39.65;;;;;;;;;;5040434;28;20201;-80
2023/04/21 07:00:41;;;;;;;79.65;43.63;;;;;;;;;;5040530;28;20178;-81
2023/04/21 07:03:07;;;;;;;73.55;41.25;;;;;;;;;;5023819;28;20246;-81
2023/04/21 07:05:33;;;;;;;76.43;42.20;;;;;;;;;;5040291;28;20204;-80
2023/04/21 07:07:59;;;;;;;74.88;41.72;;;;;;;;;;5040391;28;20184;-80
2023/04/21 07:10:26;;;;;;;78.50;43.20;;;;;;;;;;5023601;28;20185;-81
2023/04/21 07:12:52;;;;;;;68.75;41.03;;;;;;;;;;5040321;28;20201;-81
2023/04/21 07:15:18;;;;;;;64.28;37.92;;;;;;;;;;5023408;28;20178;-81
2023/04/21 07:17:44;;;;;;;60.38;36.10;;;;;;;;;;5040113;28;20254;-81
2023/04/21 07:20:10;;;;;;;54.40;34.65;;;;;;;;;;5023246;28;20182;-81
2023/04/21 07:22:37;;;;;;;53.30;33.05;;;;;;;;;;5039680;28;20173;-81
2023/04/21 07:25:06;;;;;;;51.05;33.58;;;;;;;;;;5023207;28;20188;-81
2023/04/21 07:27:33;;;;;;;40.97;28.15;;;;;;;;;;5057545;28;20174;-81
2023/04/21 07:29:59;;;;;;;48.03;30.00;;;;;;;;;;5039342;28;20209;-81
2023/04/21 07:32:25;;;;;;;47.63;31.38;;;;;;;;;;5022696;28;20192;-81
2023/04/21 07:34:51;;;;;;;43.72;29.65;;;;;;;;;;5023251;28;20208;-81
2023/04/21 07:37:18;;;;;;;40.93;27.27;;;;;;;;;;5022857;28;20178;-81
2023/04/21 07:39:44;;;;;;;42.15;28.83;;;;;;;;;;5040269;28;20495;-81
2023/04/21 07:42:10;;;;;;;39.53;28.38;;;;;;;;;;5040910;28;20652;-81
2023/04/21 07:44:37;;;;;;;40.38;27.48;;;;;;;;;;5022981;28;20179;-81
2023/04/21 07:47:04;;;;;;;40.45;27.63;;;;;;;;;;5038569;28;20174;-88
2023/04/21 07:49:30;;;;;;;43.42;26.75;;;;;;;;;;5022321;28;20235;-81
2023/04/21 07:51:56;;;;;;;38.38;26.80;;;;;;;;;;5038985;28;20601;-81
2023/04/21 07:54:22;;;;;;;38.40;25.80;;;;;;;;;;5039078;28;20186;-81
2023/04/21 07:56:48;;;;;;;37.88;26.42;;;;;;;;;;5038718;28;20490;-81
2023/04/21 07:59:14;;;;;;;39.50;26.57;;;;;;;;;;5022580;28;20209;-83
2023/04/21 08:01:40;;;;;;;36.75;27.08;;;;;;;;;;5057065;28;20785;-81
2023/04/21 08:04:06;;;;;;;38.70;27.67;;;;;;;;;;5056586;28;20180;-82
2023/04/21 08:06:32;;;;;;;40.33;28.15;;;;;;;;;;5039211;28;20828;-82
2023/04/21 08:08:58;;;;;;;35.30;26.58;;;;;;;;;;5023438;28;20188;-81
2023/04/21 08:11:27;;;;;;;37.63;26.13;;;;;;;;;;5022333;28;20217;-81
2023/04/21 08:13:53;;;;;;;35.85;23.80;;;;;;;;;;5039108;28;20189;-82
2023/04/21 08:16:19;;;;;;;33.38;24.70;;;;;;;;;;5021910;28;20189;-82
2023/04/21 08:18:45;;;;;;;35.33;23.23;;;;;;;;;;5038826;28;20205;-82
2023/04/21 08:21:11;;;;;;;26.20;20.40;;;;;;;;;;5057100;28;20193;-83
2023/04/21 08:23:37;;;;;;;30.37;22.70;;;;;;;;;;5057424;28;20397;-82
2023/04/21 08:26:03;;;;;;;27.10;19.80;;;;;;;;;;5056311;28;20926;-82
2023/04/21 08:28:29;;;;;;;27.23;20.93;;;;;;;;;;5040373;28;20419;-82
2023/04/21 08:30:55;;;;;;;26.63;21.40;;;;;;;;;;5028105;28;20416;-82
2023/04/21 08:33:21;;;;;;;24.23;18.90;;;;;;;;;;5039004;28;20506;-82
2023/04/21 08:35:47;;;;;;;25.73;18.67;;;;;;;;;;5039385;28;20408;-82
2023/04/21 08:38:13;;;;;;;23.80;18.57;;;;;;;;;;5039299;28;20468;-82
2023/04/21 08:40:39;;;;;;;27.60;20.97;;;;;;;;;;5038793;28;20436;-83
2023/04/21 08:43:06;;;;;;;23.77;20.50;;;;;;;;;;5038977;28;20400;-82
2023/04/21 08:45:32;;;;;;;25.00;20.40;;;;;;;;;;5038962;28;20416;-83
2023/04/21 08:48:03;;;;;;;22.93;18.23;;;;;;;;;;5039044;28;20423;-82
2023/04/21 08:50:30;;;;;;;24.63;20.60;;;;;;;;;;5038198;28;20526;-83
2023/04/21 08:52:57;;;;;;;25.20;20.43;;;;;;;;;;5056093;28;20465;-83
2023/04/21 08:55:26;;;;;;;27.53;21.60;;;;;;;;;;5055365;28;20422;-83
2023/04/21 08:57:52;;;;;;;22.90;19.10;;;;;;;;;;5037787;28;20400;-82
2023/04/21 09:00:18;;;;;;;22.03;18.30;;;;;;;;;;5036635;28;20420;-83
2023/04/21 09:02:55;;;;;;;19.70;17.57;;;;;;;;;;5021089;28;20466;-83
2023/04/21 09:05:22;;;;;;;23.23;18.50;;;;;;;;;;5037513;28;20398;-83
2023/04/21 09:07:49;;;;;;;21.23;17.67;;;;;;;;;;5037517;28;20494;-82
2023/04/21 09:10:21;;;;;;;20.53;17.40;;;;;;;;;;5037348;28;20387;-83
2023/04/21 09:12:50;;;;;;;22.20;17.97;;;;;;;;;;5055563;28;20407;-82
2023/04/21 09:15:16;;;;;;;18.40;14.13;;;;;;;;;;5055190;28;20495;-83
2023/04/21 09:17:44;;;;;;;16.93;14.47;;;;;;;;;;5037470;28;20815;-82
2023/04/21 09:20:19;;;;;;;16.37;14.43;;;;;;;;;;5036933;28;20519;-83
2023/04/21 09:22:45;;;;;;;17.17;13.93;;;;;;;;;;5037022;28;20423;-82
2023/04/21 09:25:16;;;;;;;17.00;14.97;;;;;;;;;;5037616;28;20826;-82
2023/04/21 09:27:42;;;;;;;17.03;15.20;;;;;;;;;;5037231;28;20391;-83
2023/04/21 09:30:08;;;;;;;15.87;14.13;;;;;;;;;;5020910;28;20458;-82
2023/04/21 09:32:38;;;;;;;17.83;14.63;;;;;;;;;;5037119;28;20427;-82
2023/04/21 09:35:05;;;;;;;14.70;13.17;;;;;;;;;;5037121;28;20404;-84
2023/04/21 09:37:33;;;;;;;16.70;15.00;;;;;;;;;;5036922;28;20822;-82
2023/04/21 09:39:59;;;;;;;17.70;15.67;;;;;;;;;;5037329;28;20467;-82
2023/04/21 09:42:29;;;;;;;18.73;15.80;;;;;;;;;;5036758;28;20431;-82
2023/04/21 09:44:55;;;;;;;18.17;16.30;;;;;;;;;;5036548;28;20507;-82
2023/04/21 09:47:21;;;;;;;16.37;14.20;;;;;;;;;;5036527;28;20762;-82
2023/04/21 09:49:51;;;;;;;17.57;15.67;;;;;;;;;;5054268;28;20470;-82
2023/04/21 09:52:19;;;;;;;15.10;13.53;;;;;;;;;;5054766;28;20390;-82
2023/04/21 09:54:51;;;;;;;13.97;12.47;;;;;;;;;;5036574;28;20412;-81
2023/04/21 09:57:23;;;;;;;14.10;11.87;;;;;;;;;;5053938;28;20404;-81
2023/04/21 09:59:51;;;;;;;10.73;9.63;;;;;;;;;;5053804;28;20509;-81
2023/04/21 10:02:19;;;;;;;11.87;10.63;;;;;;;;;;5036553;28;20514;-81
2023/04/21 10:04:45;;;;;;;10.40;9.33;;;;;;;;;;5053884;28;20404;-81
2023/04/21 10:07:11;;;;;;;12.83;10.73;;;;;;;;;;5036266;28;20511;-81
2023/04/21 10:09:56;;;;;;;12.23;11.03;;;;;;;;;;5053910;28;20427;-81
2023/04/21 10:12:25;;;;;;;11.30;10.20;;;;;;;;;;5053359;28;20407;-81
2023/04/21 10:14:52;;;;;;;12.10;10.80;;;;;;;;;;5054805;28;20423;-81
2023/04/21 10:17:22;;;;;;;10.77;9.67;;;;;;;;;;5053726;28;20735;-81
2023/04/21 10:19:50;;;;;;;11.57;10.37;;;;;;;;;;5054053;28;20464;-81
2023/04/21 10:22:26;;;;;;;13.23;11.27;;;;;;;;;;5053579;28;20416;-81
2023/04/21 10:24:54;;;;;;;12.43;9.67;;;;;;;;;;5054069;28;20395;-81
2023/04/21 10:27:31;;;;;;;16.20;10.63;;;;;;;;;;5035549;28;20426;-81
2023/04/21 10:30:01;;;;;;;11.53;10.37;;;;;;;;;;5053789;28;20457;-81
2023/04/21 10:32:40;;;;;;;11.07;9.97;;;;;;;;;;5035321;28;20414;-81
2023/04/21 10:35:12;;;;;;;10.93;9.87;;;;;;;;;;5019363;28;20427;-81
2023/04/21 10:37:40;;;;;;;12.43;11.23;;;;;;;;;;5053256;28;20737;-80
2023/04/21 10:40:09;;;;;;;10.80;9.60;;;;;;;;;;5053618;28;20459;-81
2023/04/21 10:42:36;;;;;;;10.97;9.87;;;;;;;;;;5035541;28;20420;-81
2023/04/21 10:45:06;;;;;;;11.70;10.17;;;;;;;;;;5053538;28;20810;-81
2023/04/21 10:47:39;;;;;;;12.20;10.00;;;;;;;;;;5053155;28;20400;-86
2023/04/21 10:50:25;;;;;;;11.63;10.40;;;;;;;;;;5052971;28;20459;-81
2023/04/21 10:56:10;;;;;;;11.07;9.50;;;;;;;;;;5053249;28;20363;-81
2023/04/21 10:58:37;;;;;;;10.50;9.50;;;;;;;;;;5035981;28;20490;-81
2023/04/21 11:01:03;;;;;;;12.47;11.07;;;;;;;;;;5035624;28;20400;-80
2023/04/21 11:03:35;;;;;;;10.67;9.60;;;;;;;;;;5035473;28;20464;-81
2023/04/21 11:06:13;;;;;;;10.83;9.10;;;;;;;;;;5037508;28;20425;-80
2023/04/21 11:08:54;;;;;;;12.70;10.67;;;;;;;;;;5035662;28;20424;-80
2023/04/21 11:11:25;;;;;;;13.90;11.10;;;;;;;;;;5036295;28;20400;-81
2023/04/21 11:13:52;;;;;;;10.90;9.80;;;;;;;;;;5053616;28;20412;-81
2023/04/21 11:16:19;;;;;;;12.13;10.93;;;;;;;;;;5054051;28;20408;-82
2023/04/21 11:18:45;;;;;;;11.43;10.33;;;;;;;;;;5035950;28;20494;-81
2023/04/21 11:21:23;;;;;;;11.00;9.90;;;;;;;;;;5035571;28;20424;-81
2023/04/21 11:23:50;;;;;;;11.43;10.17;;;;;;;;;;5058534;28;20407;-80
2023/04/21 11:26:16;;;;;;;14.33;9.47;;;;;;;;;;5044627;28;20926;-84
2023/04/21 11:28:42;;;;;;;10.60;9.50;;;;;;;;;;5057785;28;20970;-81
2023/04/21 11:31:08;;;;;;;11.20;9.03;;;;;;;;;;5038590;28;20784;-81
2023/04/21 11:33:38;;;;;;;8.50;7.60;;;;;;;;;;5022178;28;20523;-81
2023/04/21 11:36:07;;;;;;;8.23;7.43;;;;;;;;;;5056389;28;20396;-81
2023/04/21 11:38:37;;;;;;;8.63;7.73;;;;;;;;;;5039489;28;20494;-80
2023/04/21 11:41:04;;;;;;;9.83;8.83;;;;;;;;;;5057842;28;20411;-79
2023/04/21 11:43:30;;;;;;;10.17;9.10;;;;;;;;;;5021577;28;20444;-80
2023/04/21 11:46:10;;;;;;;10.00;9.10;;;;;;;;;;5056175;28;20467;-81
2023/04/21 11:48:36;;;;;;;9.17;8.30;;;;;;;;;;5047729;28;20458;-80
2023/04/21 11:51:02;;;;;;;8.73;7.93;;;;;;;;;;5058207;28;20466;-81
2023/04/21 11:53:29;;;;;;;7.13;6.43;;;;;;;;;;5057966;28;20427;-80
2023/04/21 11:55:56;;;;;;;7.73;6.97;;;;;;;;;;5058061;28;20452;-81
2023/04/21 11:58:22;;;;;;;7.13;6.43;;;;;;;;;;5057493;28;20882;-81
2023/04/21 12:00:49;;;;;;;9.53;7.47;;;;;;;;;;5057881;28;20418;-81
2023/04/21 12:03:15;;;;;;;8.30;7.50;;;;;;;;;;5075643;28;20422;-80
2023/04/21 12:05:42;;;;;;;7.80;6.93;;;;;;;;;;5057738;28;20407;-81
2023/04/21 12:08:13;;;;;;;9.07;7.90;;;;;;;;;;5058142;28;20476;-80
2023/04/21 12:10:43;;;;;;;8.93;7.93;;;;;;;;;;5057884;28;20473;-80
2023/04/21 12:13:09;;;;;;;8.23;7.43;;;;;;;;;;5075425;28;20414;-80
2023/04/21 12:15:35;;;;;;;8.80;7.23;;;;;;;;;;5057194;28;20423;-80
2023/04/21 12:18:01;;;;;;;11.37;8.67;;;;;;;;;;5075708;28;20447;-81
2023/04/21 12:20:28;;;;;;;8.03;7.13;;;;;;;;;;5057366;28;20403;-80
2023/04/21 12:22:55;;;;;;;8.57;7.70;;;;;;;;;;5075322;28;20749;-80
2023/04/21 12:25:21;;;;;;;7.87;7.13;;;;;;;;;;5041188;28;20914;-81
2023/04/21 12:27:57;;;;;;;9.60;6.90;;;;;;;;;;5075258;28;20399;-81
2023/04/21 12:30:23;;;;;;;7.33;6.60;;;;;;;;;;5074989;28;20399;-80
2023/04/21 12:32:50;;;;;;;6.40;5.50;;;;;;;;;;5057177;28;20416;-80
2023/04/21 12:35:17;;;;;;;6.87;6.00;;;;;;;;;;5040304;28;20423;-81
2023/04/21 12:37:44;;;;;;;7.70;6.00;;;;;;;;;;5074386;28;20865;-80
2023/04/21 12:40:10;;;;;;;7.00;6.37;;;;;;;;;;5056979;28;20974;-81
2023/04/21 12:42:36;;;;;;;7.37;5.90;;;;;;;;;;5056589;28;20415;-80
2023/04/21 12:45:04;;;;;;;6.50;5.90;;;;;;;;;;5056885;28;20412;-81
2023/04/21 12:47:30;;;;;;;9.17;5.50;;;;;;;;;;5075023;28;20410;-81
2023/04/21 12:49:56;;;;;;;6.07;5.47;;;;;;;;;;5040362;28;20459;-81
2023/04/21 12:52:22;;;;;;;6.40;4.80;;;;;;;;;;5056655;28;20454;-81
2023/04/21 12:54:48;;;;;;;7.50;6.07;;;;;;;;;;5040145;28;20423;-81
2023/04/21 12:57:14;;;;;;;8.63;5.77;;;;;;;;;;5074534;28;20399;-80
2023/04/21 12:59:40;;;;;;;6.50;5.90;;;;;;;;;;5074316;28;20459;-81
2023/04/21 13:02:06;;;;;;;7.30;6.27;;;;;;;;;;5056468;28;20419;-80
2023/04/21 13:04:32;;;;;;;11.10;5.80;;;;;;;;;;5056509;28;20414;-81
2023/04/21 13:06:59;;;;;;;5.90;4.97;;;;;;;;;;5074494;28;20396;-80
2023/04/21 13:09:25;;;;;;;5.90;5.30;;;;;;;;;;5074112;28;20486;-81
2023/04/21 13:11:51;;;;;;;5.10;4.60;;;;;;;;;;5074056;28;20403;-81
2023/04/21 13:14:17;;;;;;;5.37;4.87;;;;;;;;;;5056626;28;20399;-80
2023/04/21 13:16:43;;;;;;;4.87;4.47;;;;;;;;;;5039640;28;20425;-81
2023/04/21 13:19:09;;;;;;;5.50;4.70;;;;;;;;;;5039576;28;20532;-80
2023/04/21 13:21:35;;;;;;;6.53;4.60;;;;;;;;;;5056454;28;20439;-81
2023/04/21 13:24:02;;;;;;;4.40;4.00;;;;;;;;;;5039680;28;20815;-81
2023/04/21 13:26:28;;;;;;;5.30;4.80;;;;;;;;;;5039231;28;20462;-81
2023/04/21 13:28:54;;;;;;;5.90;5.40;;;;;;;;;;5074295;28;20438;-81
2023/04/21 13:31:20;;;;;;;5.60;4.90;;;;;;;;;;5056828;28;20419;-80
2023/04/21 13:33:54;;;;;;;5.80;5.10;;;;;;;;;;5055473;28;20465;-81
2023/04/21 13:36:20;;;;;;;5.17;4.67;;;;;;;;;;5073984;28;20423;-81
2023/04/21 13:38:52;;;;;;;7.13;5.47;;;;;;;;;;5073230;28;20502;-81
2023/04/21 13:41:18;;;;;;;5.70;5.20;;;;;;;;;;5055586;28;20473;-81
2023/04/21 13:43:45;;;;;;;5.73;4.73;;;;;;;;;;5038889;28;20419;-81
2023/04/21 13:46:13;;;;;;;4.83;4.33;;;;;;;;;;5073019;28;20399;-81
2023/04/21 13:48:41;;;;;;;6.30;4.90;;;;;;;;;;5038854;28;20425;-81
2023/04/21 13:51:08;;;;;;;6.07;5.57;;;;;;;;;;5054452;28;20486;-82
2023/04/21 13:53:35;;;;;;;6.50;5.90;;;;;;;;;;5046108;28;20412;-82
2023/04/21 13:56:01;;;;;;;8.40;5.97;;;;;;;;;;5044610;28;20961;-81
2023/04/21 13:58:29;;;;;;;9.37;6.33;;;;;;;;;;5058606;28;20825;-82
2023/04/21 14:00:56;;;;;;;7.13;6.47;;;;;;;;;;5019775;28;20783;-82
2023/04/21 14:03:22;;;;;;;7.00;6.30;;;;;;;;;;5035618;28;20408;-80
2023/04/21 14:05:48;;;;;;;7.27;6.57;;;;;;;;;;5053614;28;20811;-81
2023/04/21 14:08:14;;;;;;;5.27;4.77;;;;;;;;;;5019343;28;20768;-81
2023/04/21 14:10:40;;;;;;;6.30;5.60;;;;;;;;;;5035315;28;20876;-81
2023/04/21 14:13:06;;;;;;;5.43;4.67;;;;;;;;;;5035680;28;20411;-81
2023/04/21 14:15:32;;;;;;;7.53;4.83;;;;;;;;;;5035301;28;20930;-81
2023/04/21 14:17:59;;;;;;;6.30;5.70;;;;;;;;;;5035617;28;20412;-81
2023/04/21 14:20:25;;;;;;;5.70;5.20;;;;;;;;;;5052991;28;20530;-81
2023/04/21 14:22:51;;;;;;;6.83;6.23;;;;;;;;;;5052948;28;20416;-81
2023/04/21 14:25:17;;;;;;;6.53;6.00;;;;;;;;;;5035763;28;20420;-80